You are listening to:
KLAS Tower (Both) - Las Vegas, Nevada, United States

KLAS 181156Z 18010KT 10SM FEW130 26/02 A2979 RMK AO2 SLP056 T02610017 10317 20261 53005

If stream doesn't start automatically press the play button
If stream stops then reload player then press play